Flight Track Log - Related Links

Times and Time Zones

All times are in EDT time to prevent confusion due to time zone crossing. See the SWA1821 flight status page for this flight to view local times or setup timezone preferences in your user account.


Time Position Orientation Groundspeed Altitude Reporting Facility
EDT Latitude Longitude Course Direction KTS MPH feet Rate Location/Type
Fri 08:32:57 PM 36.0753 -115.1739 269° West 174 200 3,100  Level Los Angeles Center
Fri 08:33:15 PM 36.0750 -115.1925 269° West 176 203 3,800 1,688 Climbing Los Angeles Center
Fri 08:33:29 PM 36.0761 -115.1986 283° West 188 216 4,000 1,737 Climbing Los Angeles Center
Fri 08:34:31 PM 36.0386 -115.2692 237° Southwest 249 287 6,000 1,667 Climbing Los Angeles Center
Fri 08:35:17 PM 35.9811 -115.2978 202° Southwest 285 328 7,000 968 Climbing Los Angeles Center
Fri 08:35:33 PM 35.9747 -115.2992 190° South 281 323 7,000 2,374 Level Los Angeles Center
Fri 08:36:48 PM 35.8633 -115.3011 181° South 286 329 10,600 2,321 Climbing Los Angeles Center
Fri 08:37:50 PM 35.7700 -115.2969 178° South 315 362 12,300 1,984 Climbing Los Angeles Center
Fri 08:38:52 PM 35.6653 -115.2931 178° South 363 418 14,700 2,468 Climbing Los Angeles Center
Fri 08:39:54 PM 35.5578 -115.2978 182° South 379 436 17,400 2,371 Climbing Los Angeles Center
Fri 08:40:56 PM 35.4486 -115.3025 182° South 388 447 19,600 1,742 Climbing Los Angeles Center
Fri 08:41:58 PM 35.3383 -115.3075 182° South 395 455 21,000 1,584 Climbing Los Angeles Center
Fri 08:43:01 PM 35.2225 -115.3406 193° South 425 489 22,900 1,824 Climbing Los Angeles Center
Fri 08:44:03 PM 35.1011 -115.3842 196° South 425 489 24,800 1,694 Climbing Los Angeles Center
Fri 08:45:05 PM 34.9858 -115.4261 197° South 429 494 26,400 1,403 Climbing Los Angeles Center
Fri 08:46:07 PM 34.8503 -115.4747 196° South 443 510 27,700 774 Climbing Los Angeles Center
Fri 08:47:09 PM 34.7300 -115.5175 196° South 449 517 28,000 145 Climbing Los Angeles Center
Fri 08:48:11 PM 34.5992 -115.5625 196° South 449 517 28,000  Level Los Angeles Center
Fri 08:49:13 PM 34.4833 -115.6050 197° South 447 514 28,000  Level Los Angeles Center
Fri 08:50:15 PM 34.3608 -115.6475 196° South 448 516 28,000  Level Los Angeles Center
Fri 08:51:17 PM 34.2411 -115.6881 196° South 448 516 28,000  Level Los Angeles Center
Fri 08:52:20 PM 34.1183 -115.7300 196° South 456 525 28,000  Level Los Angeles Center
Fri 08:53:22 PM 33.9711 -115.7836 197° South 460 529 28,000 -194 Level Los Angeles Center
Fri 08:54:24 PM 33.8586 -115.8553 208° Southwest 460 529 27,600 -629 Descending Los Angeles Center
Fri 08:55:26 PM 33.7481 -115.9308 210° Southwest 459 528 26,700 -968 Descending Los Angeles Center
Fri 08:56:28 PM 33.6394 -116.0081 211° Southwest 457 526 25,600 -1,210 Descending Los Angeles Center
Fri 08:57:30 PM 33.5308 -116.0833 210° Southwest 452 520 24,200 -1,984 Descending Los Angeles Center
Fri 08:58:32 PM 33.4028 -116.1711 210° Southwest 444 511 21,500 -2,903 Descending Los Angeles Center
Fri 08:59:34 PM 33.3011 -116.2411 210° Southwest 429 494 18,200 -2,952 Descending Los Angeles Center
Fri 09:00:36 PM 33.2008 -116.3103 210° Southwest 422 486 15,400 -2,661 Descending Los Angeles Center
Fri 09:01:38 PM 33.1042 -116.3767 210° Southwest 412 474 12,700 -1,645 Descending Los Angeles Center
Fri 09:02:40 PM 33.0167 -116.4367 210° Southwest 371 427 12,000 -774 Descending Los Angeles Center
Fri 09:03:42 PM 32.9356 -116.4847 206° Southwest 333 383 11,100 -968 Descending Los Angeles Center
Fri 09:04:44 PM 32.8519 -116.5339 206° Southwest 300 345 10,000 -774 Descending Los Angeles Center
Fri 09:05:46 PM 32.8042 -116.6017 230° Southwest 278 320 9,500 -726 Descending Los Angeles Center
Fri 09:06:48 PM 32.7561 -116.6622 227° Southwest 259 298 8,500 -1,210 Descending Los Angeles Center
Fri 09:07:50 PM 32.7150 -116.7267 233° Southwest 254 292 7,000 -1,258 Descending Los Angeles Center
Fri 09:08:52 PM 32.6806 -116.8097 244° Southwest 240 276 5,900 -726 Descending Los Angeles Center
Fri 09:09:54 PM 32.6592 -116.8719 248° West 220 253 5,500 -522 Descending Los Angeles Center
Fri 09:10:24 PM 32.6667 -116.9167 281° West 210 242 5,100 -923 Descending Southern California TRACON
Fri 09:11:25 PM 32.6833 -116.9667 292° West 204 235 4,100 -1,091 Descending Southern California TRACON
Fri 09:12:25 PM 32.7000 -117.0333 287° West 181 208 2,900 -1,150 Descending Southern California TRACON
Fri 09:13:25 PM 32.7167 -117.0833 292° West 178 205 1,800 -1,000 Descending Southern California TRACON
Fri 09:14:25 PM 32.7167 -117.1333 270° West 146 168 900 -909 Descending Southern California TRACON
Fri 09:15:04 PM 32.7278 -117.1661 292° West 149 171 300 -923 Descending Los Angeles Center
Fri 09:18:00 PM 32.7333 -117.1833 281° West  Level FlightAware Approximate

Login

Don't have an account? Register now (free) for customized features, flight alerts, and more!